Time;durP1;ratioP1;P1;durP2;ratioP2;P2;SDS_P1;SDS_P2;PMS_P1;PMS_P2;Temp;Humidity;BMP_temperature;BMP_pressure;BME280_temperature;BME280_humidity;BME280_pressure;Samples;Min_cycle;Max_cycle;Signal;HPM_P1;HPM_P2
2024/03/05 00:00:10;;;;;;;39.40;23.03;;;9.50;99.90;;;;;;5034910;28;20204;-68
2024/03/05 00:02:39;;;;;;;41.30;23.57;;;9.50;99.90;;;;;;5033297;28;20429;-68
2024/03/05 00:05:07;;;;;;;43.63;24.73;;;9.50;99.90;;;;;;5035220;28;20460;-69
2024/03/05 00:07:36;;;;;;;44.27;22.17;;;9.40;99.90;;;;;;5033209;28;20505;-68
2024/03/05 00:10:03;;;;;;;48.87;25.07;;;9.40;99.90;;;;;;5035813;28;20876;-67
2024/03/05 00:12:30;;;;;;;48.13;25.23;;;9.40;99.90;;;;;;5018117;28;20439;-68
2024/03/05 00:14:55;;;;;;;50.13;26.30;;;9.40;99.90;;;;;;5035643;28;20421;-68
2024/03/05 00:17:23;;;;;;;42.40;22.60;;;9.30;99.90;;;;;;5034616;28;20849;-68
2024/03/05 00:19:50;;;;;;;45.77;23.77;;;9.30;99.90;;;;;;5035338;28;20236;-67
2024/03/05 00:22:16;;;;;;;41.37;23.30;;;9.30;99.90;;;;;;5033931;28;20518;-68
2024/03/05 00:24:42;;;;;;;45.53;24.17;;;9.30;99.90;;;;;;5036432;28;20511;-68
2024/03/05 00:27:08;;;;;;;45.97;22.83;;;9.30;99.90;;;;;;5034212;28;21512;-68
2024/03/05 00:29:34;;;;;;;43.83;23.37;;;9.30;99.90;;;;;;5033760;28;20236;-68
2024/03/05 00:32:00;;;;;;;45.47;24.67;;;9.20;99.90;;;;;;5035314;28;20922;-68
2024/03/05 00:34:26;;;;;;;42.10;21.73;;;9.20;99.90;;;;;;5033791;28;20189;-68
2024/03/05 00:36:52;;;;;;;40.17;21.90;;;9.20;99.90;;;;;;5034544;28;20197;-68
2024/03/05 00:39:19;;;;;;;38.30;21.00;;;9.20;99.90;;;;;;5034239;28;20241;-68
2024/03/05 00:41:45;;;;;;;41.77;22.30;;;9.20;99.90;;;;;;5034188;28;20823;-68
2024/03/05 00:44:11;;;;;;;38.97;21.97;;;9.10;99.90;;;;;;5034684;28;20460;-67
2024/03/05 00:46:37;;;;;;;43.33;23.57;;;9.10;99.90;;;;;;5034581;28;20576;-67
2024/03/05 00:49:03;;;;;;;40.00;22.33;;;9.00;99.90;;;;;;5034777;28;20448;-69
2024/03/05 00:51:28;;;;;;;49.97;24.40;;;9.00;99.90;;;;;;5033794;28;20549;-68
2024/03/05 00:53:55;;;;;;;44.30;21.60;;;8.90;99.90;;;;;;5034210;28;20672;-68
2024/03/05 00:56:20;;;;;;;42.80;22.10;;;8.90;99.90;;;;;;5033655;28;20596;-67
2024/03/05 00:58:47;;;;;;;39.97;22.10;;;8.90;99.90;;;;;;5034540;28;20472;-67
2024/03/05 01:01:12;;;;;;;46.63;22.67;;;8.90;99.90;;;;;;5034416;28;20225;-68
2024/03/05 01:03:38;;;;;;;40.90;22.50;;;8.90;99.90;;;;;;5034533;28;20445;-68
2024/03/05 01:06:05;;;;;;;38.63;21.57;;;8.80;99.90;;;;;;5034256;28;20186;-68
2024/03/05 01:08:31;;;;;;;43.63;21.50;;;8.80;99.90;;;;;;5034116;28;20239;-68
2024/03/05 01:10:57;;;;;;;42.60;22.50;;;8.80;99.90;;;;;;5034627;28;20437;-68
2024/03/05 01:13:23;;;;;;;43.80;23.73;;;8.80;99.90;;;;;;5034096;28;20239;-68
2024/03/05 01:15:49;;;;;;;43.13;23.30;;;8.80;99.90;;;;;;5034627;28;20192;-68
2024/03/05 01:18:14;;;;;;;40.90;22.17;;;8.70;99.90;;;;;;5032590;28;20304;-68
2024/03/05 01:20:41;;;;;;;39.50;22.13;;;8.70;99.90;;;;;;5034160;28;20432;-68
2024/03/05 01:23:10;;;;;;;45.70;22.77;;;8.70;99.90;;;;;;5034141;28;20182;-68
2024/03/05 01:25:37;;;;;;;42.20;21.90;;;8.70;99.90;;;;;;5017062;28;20464;-68
2024/03/05 01:28:04;;;;;;;43.50;22.53;;;8.70;99.90;;;;;;5034595;28;20445;-68
2024/03/05 01:30:30;;;;;;;39.07;22.43;;;8.70;99.90;;;;;;5032329;28;20427;-67
2024/03/05 01:32:57;;;;;;;38.73;22.50;;;8.60;99.90;;;;;;5034110;28;20437;-68
2024/03/05 01:35:22;;;;;;;42.37;22.37;;;8.70;99.90;;;;;;5033379;28;20433;-67
2024/03/05 01:37:48;;;;;;;43.30;21.83;;;8.60;99.90;;;;;;5033527;28;20469;-68
2024/03/05 01:40:14;;;;;;;41.37;22.83;;;8.70;99.90;;;;;;5034200;28;20573;-68
2024/03/05 01:42:41;;;;;;;41.53;23.40;;;8.70;99.90;;;;;;5033562;28;20173;-67
2024/03/05 01:45:08;;;;;;;44.13;23.43;;;8.70;99.90;;;;;;5028912;28;20523;-68
2024/03/05 01:47:34;;;;;;;48.90;24.27;;;8.70;99.90;;;;;;5034138;28;20606;-68
2024/03/05 01:50:02;;;;;;;44.43;24.43;;;8.70;99.90;;;;;;5033286;28;20440;-68
2024/03/05 01:52:27;;;;;;;47.23;22.27;;;8.70;99.90;;;;;;5032976;28;20502;-68
2024/03/05 01:54:56;;;;;;;42.97;23.13;;;8.80;99.90;;;;;;5033797;28;20425;-67
2024/03/05 01:57:24;;;;;;;44.27;24.17;;;8.80;99.90;;;;;;5032548;28;20448;-68
2024/03/05 01:59:50;;;;;;;44.17;23.67;;;8.80;99.90;;;;;;5033346;28;20424;-68
2024/03/05 02:02:16;;;;;;;50.97;24.07;;;8.80;99.90;;;;;;5033185;28;20440;-67
2024/03/05 02:04:44;;;;;;;48.17;24.77;;;8.90;99.90;;;;;;5034484;28;20429;-68
2024/03/05 02:07:11;;;;;;;47.67;25.50;;;8.90;99.90;;;;;;5031668;28;20186;-68
2024/03/05 02:09:37;;;;;;;48.20;24.70;;;8.90;99.90;;;;;;5034183;28;20469;-68
2024/03/05 02:12:03;;;;;;;49.50;25.83;;;9.00;99.90;;;;;;5032723;28;20440;-68
2024/03/05 02:14:31;;;;;;;49.57;25.37;;;9.00;99.90;;;;;;5033896;28;20190;-68
2024/03/05 02:16:59;;;;;;;43.20;25.23;;;9.00;99.90;;;;;;5032673;28;20264;-68
2024/03/05 02:19:26;;;;;;;46.70;24.97;;;9.00;99.90;;;;;;5032516;28;20584;-68
2024/03/05 02:21:59;;;;;;;54.20;25.90;;;9.00;99.90;;;;;;5034043;28;20516;-68
2024/03/05 02:24:25;;;;;;;53.53;25.97;;;9.00;99.90;;;;;;5032164;28;20421;-68
2024/03/05 02:26:52;;;;;;;48.80;25.63;;;9.00;99.90;;;;;;5033434;28;20935;-68
2024/03/05 02:29:18;;;;;;;55.20;26.00;;;9.00;99.90;;;;;;5033694;28;20173;-68
2024/03/05 02:31:45;;;;;;;46.50;23.53;;;9.00;99.90;;;;;;5033180;28;20777;-68
2024/03/05 02:34:11;;;;;;;46.83;25.13;;;9.00;99.90;;;;;;5032463;28;20464;-68
2024/03/05 02:36:37;;;;;;;49.07;25.70;;;9.00;99.90;;;;;;5033588;28;20437;-68
2024/03/05 02:39:04;;;;;;;42.43;23.37;;;9.00;99.90;;;;;;5033330;28;20528;-68
2024/03/05 02:41:30;;;;;;;48.47;25.83;;;9.00;99.90;;;;;;5032322;28;20432;-68
2024/03/05 02:43:56;;;;;;;45.97;24.10;;;9.00;99.90;;;;;;5033310;28;20494;-68
2024/03/05 02:46:22;;;;;;;47.67;24.23;;;9.00;99.90;;;;;;5034589;28;20266;-68
2024/03/05 02:48:48;;;;;;;48.80;23.70;;;9.00;99.90;;;;;;5036817;28;21095;-68
2024/03/05 02:51:14;;;;;;;49.77;24.40;;;9.10;99.90;;;;;;5036390;28;20421;-68
2024/03/05 02:53:39;;;;;;;47.73;23.30;;;9.00;99.90;;;;;;5036125;28;20189;-68
2024/03/05 02:56:06;;;;;;;45.67;23.17;;;9.10;99.90;;;;;;5034999;28;20432;-68
2024/03/05 02:58:32;;;;;;;49.90;24.87;;;9.00;99.90;;;;;;5036985;28;20241;-68
2024/03/05 03:00:57;;;;;;;46.80;24.37;;;9.10;99.90;;;;;;5036522;28;20519;-68
2024/03/05 03:03:23;;;;;;;49.67;24.70;;;9.10;99.90;;;;;;5035848;28;20188;-68
2024/03/05 03:05:49;;;;;;;48.53;23.40;;;9.10;99.90;;;;;;5036403;28;20186;-68
2024/03/05 03:08:17;;;;;;;46.43;24.07;;;9.00;99.90;;;;;;5036077;28;20823;-69
2024/03/05 03:10:43;;;;;;;47.37;24.10;;;9.10;99.90;;;;;;5035742;28;20186;-67
2024/03/05 03:13:09;;;;;;;46.97;25.17;;;9.00;99.90;;;;;;5036356;28;20465;-69
2024/03/05 03:15:35;;;;;;;43.60;23.30;;;9.00;99.90;;;;;;5036128;28;20182;-67
2024/03/05 03:18:00;;;;;;;45.20;25.00;;;9.00;99.90;;;;;;5035701;28;20900;-68
2024/03/05 03:20:26;;;;;;;49.47;24.60;;;9.10;99.90;;;;;;5035160;28;20182;-67
2024/03/05 03:22:52;;;;;;;47.17;24.37;;;9.10;99.90;;;;;;5036779;28;20175;-67
2024/03/05 03:25:17;;;;;;;52.20;26.63;;;9.10;99.90;;;;;;5035981;28;20190;-67
2024/03/05 03:27:43;;;;;;;48.10;24.50;;;9.10;99.90;;;;;;5036338;28;20186;-67
2024/03/05 03:30:17;;;;;;;48.87;24.80;;;9.10;99.90;;;;;;5035983;28;20185;-67
2024/03/05 03:32:46;;;;;;;43.37;23.30;;;9.00;99.90;;;;;;5036826;28;20554;-67
2024/03/05 03:35:13;;;;;;;44.43;22.70;;;9.00;99.90;;;;;;5033812;28;20908;-67
2024/03/05 03:37:40;;;;;;;42.90;22.60;;;9.00;99.90;;;;;;5036093;28;20472;-67
2024/03/05 03:40:07;;;;;;;46.50;24.80;;;9.00;99.90;;;;;;5035298;28;20433;-67
2024/03/05 03:42:33;;;;;;;47.70;23.53;;;9.00;99.90;;;;;;5036383;28;20455;-67
2024/03/05 03:44:59;;;;;;;47.67;23.60;;;9.00;99.90;;;;;;5035756;28;20792;-68
2024/03/05 03:47:25;;;;;;;46.90;23.70;;;9.00;99.90;;;;;;5035965;28;20604;-67
2024/03/05 03:49:51;;;;;;;49.87;24.90;;;8.90;99.90;;;;;;5036188;28;20190;-67
2024/03/05 03:52:17;;;;;;;49.40;24.27;;;8.90;99.90;;;;;;5035064;28;20536;-67
2024/03/05 03:54:43;;;;;;;44.73;24.40;;;8.90;99.90;;;;;;5036015;28;20518;-67
2024/03/05 03:57:10;;;;;;;46.73;24.43;;;8.90;99.90;;;;;;5033011;28;20428;-67
2024/03/05 03:59:36;;;;;;;42.27;23.40;;;8.80;99.90;;;;;;5035104;28;20803;-67
2024/03/05 04:02:03;;;;;;;45.50;23.60;;;8.80;99.90;;;;;;5035173;28;20421;-67
2024/03/05 04:04:29;;;;;;;45.47;25.33;;;8.80;99.90;;;;;;5036096;28;20190;-67
2024/03/05 04:06:55;;;;;;;43.87;22.63;;;8.80;99.90;;;;;;5034705;28;20421;-68
2024/03/05 04:09:21;;;;;;;43.40;23.67;;;8.80;99.90;;;;;;5036243;28;21079;-67
2024/03/05 04:11:46;;;;;;;42.90;23.47;;;8.70;99.90;;;;;;5034544;28;20186;-68
2024/03/05 04:14:12;;;;;;;44.60;22.03;;;8.70;99.90;;;;;;5035305;28;20251;-68
2024/03/05 04:16:42;;;;;;;45.63;24.50;;;8.80;99.90;;;;;;5035437;28;20615;-68
2024/03/05 04:19:08;;;;;;;50.20;23.47;;;8.70;99.90;;;;;;5034865;28;20765;-68
2024/03/05 04:21:44;;;;;;;44.37;23.00;;;8.80;99.90;;;;;;5035205;28;20428;-68
2024/03/05 04:24:13;;;;;;;49.03;22.07;;;8.80;99.90;;;;;;5035128;28;20439;-67
2024/03/05 04:26:42;;;;;;;46.40;21.73;;;8.80;99.90;;;;;;5035073;28;20509;-68
2024/03/05 04:29:16;;;;;;;45.30;24.33;;;8.70;99.90;;;;;;5034380;28;21106;-68
2024/03/05 04:31:42;;;;;;;44.67;23.30;;;8.70;99.90;;;;;;5034790;28;20425;-67
2024/03/05 04:34:09;;;;;;;46.40;23.57;;;8.70;99.90;;;;;;5033383;28;20835;-68
2024/03/05 04:36:38;;;;;;;41.43;22.33;;;8.70;99.90;;;;;;5034941;28;21380;-68
2024/03/05 04:39:03;;;;;;;38.97;21.30;;;8.70;99.90;;;;;;5034177;28;20493;-68
2024/03/05 04:41:29;;;;;;;44.90;23.10;;;8.70;99.90;;;;;;5034523;28;20471;-68
2024/03/05 04:43:55;;;;;;;49.20;22.20;;;8.70;99.90;;;;;;5034539;28;20183;-68
2024/03/05 04:46:21;;;;;;;45.53;24.30;;;8.70;99.90;;;;;;5035030;28;20579;-68
2024/03/05 04:48:48;;;;;;;43.47;22.40;;;8.70;99.90;;;;;;5034823;28;20436;-68
2024/03/05 04:51:14;;;;;;;45.53;23.57;;;8.70;99.90;;;;;;5034766;28;20206;-68
2024/03/05 04:53:40;;;;;;;46.73;23.37;;;8.60;99.90;;;;;;5034850;28;20467;-68
2024/03/05 04:56:08;;;;;;;41.00;21.33;;;8.70;99.90;;;;;;5034369;28;20425;-68
2024/03/05 04:58:35;;;;;;;44.57;21.30;;;8.70;99.90;;;;;;5034031;28;20214;-67
2024/03/05 05:01:00;;;;;;;44.47;21.53;;;8.70;99.90;;;;;;5034410;28;20459;-68
2024/03/05 05:03:26;;;;;;;46.30;24.00;;;8.60;99.90;;;;;;5034491;28;20426;-68
2024/03/05 05:05:55;;;;;;;51.40;24.03;;;8.70;99.90;;;;;;5033558;28;20897;-68
2024/03/05 05:08:21;;;;;;;49.37;22.60;;;8.70;99.90;;;;;;5034321;28;20260;-68
2024/03/05 05:10:47;;;;;;;46.10;22.23;;;8.60;99.90;;;;;;5033118;28;20516;-68
2024/03/05 05:13:13;;;;;;;57.80;23.23;;;8.70;99.90;;;;;;5034512;28;20193;-68
2024/03/05 05:15:39;;;;;;;48.77;22.80;;;8.70;99.90;;;;;;5034304;28;20428;-68
2024/03/05 05:18:05;;;;;;;47.67;24.10;;;8.70;99.90;;;;;;5033733;28;20989;-68
2024/03/05 05:20:31;;;;;;;49.20;24.07;;;8.70;99.90;;;;;;5034494;28;20225;-68
2024/03/05 05:22:57;;;;;;;46.80;23.97;;;8.70;99.90;;;;;;5032478;28;20424;-68
2024/03/05 05:25:23;;;;;;;47.83;23.70;;;8.70;99.90;;;;;;5033924;28;20459;-68
2024/03/05 05:27:50;;;;;;;48.20;23.17;;;8.70;99.90;;;;;;5033363;28;20756;-68
2024/03/05 05:30:18;;;;;;;47.00;23.53;;;8.70;99.90;;;;;;5033777;28;21212;-67
2024/03/05 05:32:44;;;;;;;51.53;25.00;;;8.70;99.90;;;;;;5033787;28;20425;-68
2024/03/05 05:35:10;;;;;;;48.67;23.20;;;8.70;99.90;;;;;;5033504;28;20448;-67
2024/03/05 05:37:36;;;;;;;52.83;25.17;;;8.70;99.90;;;;;;5033991;28;20459;-67
2024/03/05 05:40:02;;;;;;;50.47;23.37;;;8.70;99.90;;;;;;5032948;28;20209;-68
2024/03/05 05:42:28;;;;;;;44.77;24.00;;;8.70;99.90;;;;;;5033654;28;20425;-67
2024/03/05 05:44:54;;;;;;;52.80;26.23;;;8.70;99.90;;;;;;5033488;28;20862;-68
2024/03/05 05:47:20;;;;;;;52.77;24.33;;;8.60;99.90;;;;;;5033423;28;20205;-67
2024/03/05 05:49:46;;;;;;;48.27;25.27;;;8.60;99.90;;;;;;5033229;28;20204;-68
2024/03/05 05:52:12;;;;;;;51.27;24.40;;;8.60;99.90;;;;;;5033342;28;20443;-68
2024/03/05 05:54:44;;;;;;;50.83;23.37;;;8.50;99.90;;;;;;5028010;28;20436;-68
2024/03/05 05:57:11;;;;;;;56.10;26.90;;;8.60;99.90;;;;;;5028880;28;20459;-67
2024/03/05 05:59:41;;;;;;;49.50;25.33;;;8.60;99.90;;;;;;5032709;28;20468;-67
2024/03/05 06:02:08;;;;;;;52.90;28.03;;;8.60;99.90;;;;;;5030647;28;20440;-68
2024/03/05 06:04:37;;;;;;;52.67;25.87;;;8.60;99.90;;;;;;5028450;28;20466;-68
2024/03/05 06:07:03;;;;;;;56.90;27.23;;;8.60;99.90;;;;;;5029972;28;20433;-68
2024/03/05 06:09:33;;;;;;;53.70;27.43;;;8.60;99.90;;;;;;5032557;28;20432;-68
2024/03/05 06:12:01;;;;;;;50.27;25.80;;;8.70;99.90;;;;;;5032417;28;21016;-68
2024/03/05 06:14:27;;;;;;;51.53;26.93;;;8.70;99.90;;;;;;5033528;28;20986;-68
2024/03/05 06:16:53;;;;;;;54.17;27.47;;;8.70;99.90;;;;;;5030602;28;20441;-67
2024/03/05 06:19:18;;;;;;;56.27;28.40;;;8.70;99.90;;;;;;5032040;28;20592;-68
2024/03/05 06:21:44;;;;;;;58.30;26.03;;;8.80;99.90;;;;;;5034069;28;20178;-68
2024/03/05 06:24:10;;;;;;;51.37;26.47;;;8.80;99.90;;;;;;5034188;28;20983;-68
2024/03/05 06:26:38;;;;;;;53.30;26.77;;;8.80;99.90;;;;;;5035191;28;20182;-67
2024/03/05 06:29:06;;;;;;;53.73;27.50;;;8.80;99.90;;;;;;5036638;28;20468;-67
2024/03/05 06:31:35;;;;;;;57.63;28.70;;;8.80;99.90;;;;;;5037204;28;21036;-67
2024/03/05 06:34:05;;;;;;;53.63;27.67;;;8.90;99.90;;;;;;5035821;28;20516;-68
2024/03/05 06:36:34;;;;;;;54.43;25.40;;;8.90;99.90;;;;;;5036949;28;20464;-67
2024/03/05 06:39:07;;;;;;;56.53;29.77;;;8.90;99.90;;;;;;5035501;28;20508;-68
2024/03/05 06:41:33;;;;;;;67.40;34.67;;;8.90;99.90;;;;;;5036602;28;20428;-68
2024/03/05 06:44:09;;;;;;;63.10;32.80;;;8.90;99.90;;;;;;5034489;28;20434;-68
2024/03/05 06:46:41;;;;;;;54.27;30.33;;;8.90;99.90;;;;;;5035767;28;20185;-68
2024/03/05 06:49:14;;;;;;;62.23;31.77;;;8.90;99.90;;;;;;5037092;28;20440;-67
2024/03/05 06:51:53;;;;;;;52.13;27.50;;;8.90;99.90;;;;;;5035560;28;20438;-68
2024/03/05 06:57:04;;;;;;;55.80;29.13;;;9.00;99.90;;;;;;5036698;28;20440;-67
2024/03/05 06:59:30;;;;;;;58.20;27.10;;;9.00;99.90;;;;;;5036252;28;21085;-68
2024/03/05 07:01:56;;;;;;;57.50;27.57;;;9.00;99.90;;;;;;5035737;28;20433;-68
2024/03/05 07:04:22;;;;;;;52.80;27.20;;;9.00;99.90;;;;;;5036376;28;20455;-68
2024/03/05 07:06:49;;;;;;;50.53;25.23;;;9.00;99.90;;;;;;5033767;28;20711;-68
2024/03/05 07:09:15;;;;;;;56.23;25.90;;;9.00;99.90;;;;;;5032480;28;21056;-68
2024/03/05 07:11:41;;;;;;;46.10;25.57;;;9.00;99.90;;;;;;5031529;28;20587;-68
2024/03/05 07:14:07;;;;;;;46.60;24.97;;;9.00;99.90;;;;;;5033195;28;20444;-68
2024/03/05 07:16:33;;;;;;;53.30;25.27;;;9.00;99.90;;;;;;5032031;28;20184;-68
2024/03/05 07:19:01;;;;;;;48.27;24.77;;;8.90;99.90;;;;;;5033913;28;20480;-68
2024/03/05 07:21:28;;;;;;;56.20;25.87;;;8.90;99.90;;;;;;5033316;28;20191;-68
2024/03/05 07:23:56;;;;;;;48.17;26.37;;;8.90;99.90;;;;;;5026192;28;20507;-67
2024/03/05 07:26:22;;;;;;;53.87;26.67;;;8.70;99.90;;;;;;5033121;28;21047;-67
2024/03/05 07:28:48;;;;;;;48.33;26.33;;;8.80;99.90;;;;;;5032843;28;20437;-67
2024/03/05 07:31:15;;;;;;;50.20;24.53;;;8.70;99.90;;;;;;5032889;28;20463;-67
2024/03/05 07:33:41;;;;;;;51.10;26.67;;;8.70;99.90;;;;;;5032919;28;20551;-67
2024/03/05 07:36:06;;;;;;;50.10;24.53;;;8.80;99.90;;;;;;5033634;28;20494;-67
2024/03/05 07:38:33;;;;;;;51.83;26.40;;;8.80;99.90;;;;;;5033639;28;20473;-67
2024/03/05 07:40:59;;;;;;;53.13;24.33;;;8.80;99.90;;;;;;5033735;28;20201;-67
2024/03/05 07:43:25;;;;;;;47.77;24.17;;;8.80;99.90;;;;;;5035038;28;20437;-67
2024/03/05 07:45:50;;;;;;;52.80;24.80;;;8.80;99.90;;;;;;5034506;28;20593;-66
2024/03/05 07:48:16;;;;;;;50.27;26.67;;;8.80;99.90;;;;;;5035225;28;20197;-67
2024/03/05 07:50:42;;;;;;;54.23;24.77;;;8.70;99.90;;;;;;5034594;28;20910;-68
2024/03/05 07:53:08;;;;;;;49.80;23.33;;;8.70;99.90;;;;;;5036016;28;20239;-67
2024/03/05 07:55:37;;;;;;;47.63;23.47;;;8.70;99.90;;;;;;5033478;28;20849;-68
2024/03/05 07:58:03;;;;;;;46.80;22.73;;;8.60;99.90;;;;;;5034330;28;20484;-67
2024/03/05 08:00:29;;;;;;;53.77;25.73;;;8.60;99.90;;;;;;5033597;28;20443;-67
2024/03/05 08:02:55;;;;;;;45.43;23.97;;;8.50;99.90;;;;;;5034489;28;20539;-67
2024/03/05 08:05:21;;;;;;;50.30;24.73;;;8.50;99.90;;;;;;5035013;28;20193;-67
2024/03/05 08:07:51;;;;;;;52.77;26.53;;;8.60;99.90;;;;;;5034509;28;20178;-67
2024/03/05 08:10:17;;;;;;;48.70;24.80;;;8.60;99.90;;;;;;5034606;28;20437;-67
2024/03/05 08:12:45;;;;;;;49.00;23.87;;;8.80;99.90;;;;;;5034366;28;20432;-67
2024/03/05 08:15:12;;;;;;;46.90;24.00;;;8.80;99.90;;;;;;5034356;28;20472;-67
2024/03/05 08:17:39;;;;;;;46.37;23.47;;;8.80;99.90;;;;;;5033569;28;20521;-67
2024/03/05 08:20:09;;;;;;;43.47;23.37;;;8.90;99.90;;;;;;5034427;28;20492;-67
2024/03/05 08:22:35;;;;;;;44.60;24.10;;;8.90;99.90;;;;;;5033382;28;20429;-67
2024/03/05 08:25:12;;;;;;;48.23;23.80;;;8.90;99.90;;;;;;5034780;28;20935;-67
2024/03/05 08:27:41;;;;;;;52.37;26.33;;;8.90;99.90;;;;;;5033236;28;20954;-67
2024/03/05 08:30:09;;;;;;;50.93;25.33;;;8.90;99.90;;;;;;5034266;28;20437;-67
2024/03/05 08:32:38;;;;;;;46.27;23.47;;;8.90;99.90;;;;;;5032842;28;20440;-67
2024/03/05 08:35:14;;;;;;;53.70;26.80;;;9.00;99.90;;;;;;5034000;28;20461;-67
2024/03/05 08:37:48;;;;;;;46.73;24.27;;;9.00;99.90;;;;;;5032371;28;20467;-67
2024/03/05 08:40:18;;;;;;;45.10;23.77;;;8.90;99.90;;;;;;5034615;28;20440;-67
2024/03/05 08:42:45;;;;;;;45.23;22.77;;;8.90;99.90;;;;;;5033659;28;20428;-66
2024/03/05 08:45:15;;;;;;;45.80;22.80;;;9.00;99.90;;;;;;5034140;28;20519;-67
2024/03/05 08:47:46;;;;;;;52.90;25.37;;;9.10;99.90;;;;;;5031815;28;20448;-67
2024/03/05 08:50:12;;;;;;;51.00;25.00;;;9.10;99.90;;;;;;5033607;28;20622;-67
2024/03/05 08:52:39;;;;;;;49.30;25.20;;;9.20;99.90;;;;;;5032034;28;20437;-67
2024/03/05 08:55:08;;;;;;;54.73;26.90;;;9.20;99.90;;;;;;5032903;28;20433;-68
2024/03/05 08:57:37;;;;;;;46.30;24.00;;;9.10;99.90;;;;;;5032225;28;21025;-68
2024/03/05 09:00:04;;;;;;;50.30;25.97;;;9.20;99.90;;;;;;5033811;28;20435;-67
2024/03/05 09:02:30;;;;;;;46.80;24.03;;;9.20;99.90;;;;;;5033280;28;20931;-67
2024/03/05 09:04:56;;;;;;;49.97;26.20;;;9.30;99.90;;;;;;5033697;28;20550;-67
2024/03/05 09:07:22;;;;;;;45.90;24.80;;;9.40;99.90;;;;;;5033711;28;21219;-67
2024/03/05 09:09:48;;;;;;;46.23;24.90;;;9.40;99.90;;;;;;5032870;28;20460;-67
2024/03/05 09:12:14;;;;;;;49.53;25.40;;;9.60;99.90;;;;;;5034336;28;20330;-67
2024/03/05 09:14:41;;;;;;;48.67;26.07;;;9.60;99.90;;;;;;5034622;28;20183;-67
2024/03/05 09:17:06;;;;;;;43.80;25.30;;;9.70;99.90;;;;;;5034985;28;20443;-67
2024/03/05 09:19:32;;;;;;;43.47;23.30;;;9.80;99.90;;;;;;5034539;28;21033;-67
2024/03/05 09:21:59;;;;;;;42.87;22.80;;;9.90;99.90;;;;;;5034503;28;20189;-67
2024/03/05 09:24:25;;;;;;;40.40;23.50;;;9.90;99.90;;;;;;5035454;28;20432;-68
2024/03/05 09:26:50;;;;;;;44.33;24.37;;;10.00;99.90;;;;;;5034657;28;20436;-67
2024/03/05 09:29:16;;;;;;;44.77;24.23;;;10.20;99.90;;;;;;5034564;28;20189;-68
2024/03/05 09:31:43;;;;;;;50.70;25.37;;;10.20;99.90;;;;;;5033719;28;20194;-67
2024/03/05 09:34:08;;;;;;;41.20;23.47;;;10.40;99.90;;;;;;5034051;28;20185;-68
2024/03/05 09:36:34;;;;;;;40.13;23.60;;;10.50;99.90;;;;;;5033745;28;20549;-67
2024/03/05 09:39:00;;;;;;;39.00;23.70;;;10.50;99.90;;;;;;5033519;28;20620;-67
2024/03/05 09:41:29;;;;;;;43.13;24.70;;;10.60;99.90;;;;;;5033733;28;20269;-67
2024/03/05 09:43:55;;;;;;;39.93;23.50;;;10.70;99.90;;;;;;5032275;28;20212;-67
2024/03/05 09:46:21;;;;;;;43.27;24.07;;;10.80;99.90;;;;;;5034706;28;20436;-67
2024/03/05 09:48:47;;;;;;;43.47;25.83;;;10.80;99.90;;;;;;5033512;28;20443;-67
2024/03/05 09:51:13;;;;;;;41.87;23.27;;;10.90;99.90;;;;;;5034278;28;20495;-68
2024/03/05 09:53:39;;;;;;;44.77;25.07;;;10.90;99.90;;;;;;5033613;28;20239;-67
2024/03/05 09:56:05;;;;;;;44.87;24.13;;;11.00;99.90;;;;;;5037041;28;20186;-67
2024/03/05 09:58:41;;;;;;;41.83;23.93;;;11.10;99.90;;;;;;5036991;28;20478;-68
2024/03/05 10:01:09;;;;;;;45.03;24.00;;;11.10;99.90;;;;;;5037848;28;20450;-67
2024/03/05 10:03:37;;;;;;;49.10;25.33;;;11.10;99.90;;;;;;5037501;28;20432;-68
2024/03/05 10:06:07;;;;;;;41.97;24.80;;;11.10;99.90;;;;;;5037395;28;20969;-67
2024/03/05 10:08:33;;;;;;;40.40;22.13;;;11.10;99.90;;;;;;5037005;28;20990;-67
2024/03/05 10:11:00;;;;;;;43.57;24.30;;;11.20;99.90;;;;;;5038306;28;20447;-67
2024/03/05 10:13:31;;;;;;;40.90;24.30;;;11.20;99.90;;;;;;5036665;28;21011;-67
2024/03/05 10:16:14;;;;;;;37.30;23.53;;;11.10;99.90;;;;;;5037063;28;21062;-67
2024/03/05 10:18:39;;;;;;;42.20;23.77;;;11.10;99.90;;;;;;5036596;28;21007;-67
2024/03/05 10:21:18;;;;;;;39.03;23.70;;;11.10;99.90;;;;;;5037219;28;20427;-68
2024/03/05 10:24:03;;;;;;;41.50;24.20;;;11.00;99.90;;;;;;5036562;28;20214;-67
2024/03/05 10:26:30;;;;;;;34.83;22.63;;;11.00;99.90;;;;;;5036556;28;20448;-68
2024/03/05 10:29:10;;;;;;;54.73;24.20;;;11.00;99.90;;;;;;5036807;28;20462;-67
2024/03/05 10:31:38;;;;;;;45.33;24.50;;;11.00;99.90;;;;;;5035745;28;20489;-67
2024/03/05 10:34:04;;;;;;;39.87;24.03;;;10.80;99.90;;;;;;5037611;28;20787;-67
2024/03/05 10:36:32;;;;;;;63.40;25.77;;;10.80;99.90;;;;;;5036104;28;20544;-67
2024/03/05 10:38:58;;;;;;;41.03;22.97;;;10.80;99.90;;;;;;5019335;28;20480;-67
2024/03/05 10:41:28;;;;;;;44.40;23.53;;;10.80;99.90;;;;;;5036598;28;20428;-67
2024/03/05 10:43:56;;;;;;;38.90;24.40;;;10.70;99.90;;;;;;5037149;28;20444;-67
2024/03/05 10:46:23;;;;;;;41.80;24.47;;;10.70;99.90;;;;;;5036332;28;20482;-68
2024/03/05 10:48:52;;;;;;;39.23;22.80;;;10.70;99.90;;;;;;5035874;28;20454;-67
2024/03/05 10:51:26;;;;;;;44.70;26.17;;;10.70;99.90;;;;;;5036157;28;20432;-68
2024/03/05 10:53:52;;;;;;;44.33;24.20;;;10.60;99.90;;;;;;5035360;28;20794;-67
2024/03/05 10:56:18;;;;;;;38.73;22.23;;;10.60;99.90;;;;;;5035841;28;20437;-67
2024/03/05 11:01:26;;;;;;;37.97;22.57;;;10.70;99.90;;;;;;5034968;28;20432;-67
2024/03/05 11:03:55;;;;;;;38.83;20.97;;;10.70;99.90;;;;;;5033212;28;20429;-67
2024/03/05 11:06:21;;;;;;;33.67;21.17;;;10.80;99.90;;;;;;5034889;28;20960;-68
2024/03/05 11:08:51;;;;;;;31.43;19.80;;;10.70;99.90;;;;;;5034363;28;20442;-67
2024/03/05 11:11:22;;;;;;;30.10;18.53;;;10.70;99.90;;;;;;5035117;28;20535;-67
2024/03/05 11:13:50;;;;;;;31.17;20.10;;;10.70;99.90;;;;;;5035564;28;20416;-67
2024/03/05 11:16:17;;;;;;;31.30;19.00;;;10.70;99.90;;;;;;5016854;28;20467;-67
2024/03/05 11:18:44;;;;;;;36.83;21.70;;;10.70;99.90;;;;;;5034655;28;20489;-67
2024/03/05 11:21:12;;;;;;;32.50;19.23;;;10.70;99.90;;;;;;5035237;28;20486;-68
2024/03/05 11:23:49;;;;;;;32.20;19.00;;;10.70;99.90;;;;;;5034399;28;20478;-67
2024/03/05 11:26:20;;;;;;;37.33;22.67;;;10.70;99.90;;;;;;5034941;28;20465;-67
2024/03/05 11:28:47;;;;;;;41.80;22.33;;;10.70;99.90;;;;;;5034147;28;20437;-66
2024/03/05 11:31:17;;;;;;;37.97;22.77;;;10.70;99.90;;;;;;5034923;28;20444;-68
2024/03/05 11:33:58;;;;;;;37.73;22.47;;;10.70;99.90;;;;;;5034346;28;20508;-67
2024/03/05 11:36:24;;;;;;;37.87;23.60;;;10.70;99.90;;;;;;5034189;28;20432;-67
2024/03/05 11:38:56;;;;;;;41.30;24.80;;;10.70;99.90;;;;;;5034794;28;20468;-68
2024/03/05 11:41:25;;;;;;;40.87;23.77;;;10.70;99.90;;;;;;5033725;28;21109;-67
2024/03/05 11:43:52;;;;;;;41.57;24.87;;;10.70;99.90;;;;;;5035328;28;20424;-67
2024/03/05 11:46:42;;;;;;;43.03;26.50;;;10.60;99.90;;;;;;5033924;28;20459;-67
2024/03/05 11:49:09;;;;;;;38.03;22.57;;;10.60;99.90;;;;;;4997679;28;1101112;-68
2024/03/05 11:51:35;;;;;;;41.10;26.20;;;10.60;99.90;;;;;;5034692;28;20214;-68
2024/03/05 11:54:01;;;;;;;45.27;24.87;;;10.50;99.90;;;;;;5036453;28;20424;-67
2024/03/05 11:56:26;;;;;;;45.50;25.43;;;10.50;99.90;;;;;;5033351;28;21010;-67
2024/03/05 11:58:54;;;;;;;44.93;24.80;;;10.50;99.90;;;;;;5035651;28;21096;-67
2024/03/05 12:01:23;;;;;;;42.00;24.90;;;10.50;99.90;;;;;;5035084;28;20196;-68
2024/03/05 12:04:07;;;;;;;41.50;25.00;;;10.40;99.90;;;;;;5017992;28;20421;-67
2024/03/05 12:06:37;;;;;;;39.37;24.27;;;10.50;99.90;;;;;;5033938;28;20424;-67
2024/03/05 12:09:18;;;;;;;43.13;26.07;;;10.40;99.90;;;;;;5034758;28;20910;-67
2024/03/05 12:12:02;;;;;;;37.87;23.30;;;10.40;99.90;;;;;;5034418;28;20429;-67
2024/03/05 12:14:32;;;;;;;43.07;25.03;;;10.40;99.90;;;;;;5034203;28;20651;-67
2024/03/05 12:17:03;;;;;;;39.43;22.67;;;10.40;99.90;;;;;;5034668;28;20436;-67
2024/03/05 12:19:32;;;;;;;43.37;26.90;;;10.40;99.90;;;;;;5033577;28;20986;-67
2024/03/05 12:21:59;;;;;;;41.10;24.67;;;10.40;99.90;;;;;;5034770;28;20429;-67
2024/03/05 12:24:27;;;;;;;45.30;24.77;;;10.40;99.90;;;;;;5034488;28;20432;-68
2024/03/05 12:26:57;;;;;;;44.00;24.70;;;10.40;99.90;;;;;;5034285;28;20461;-67
2024/03/05 12:29:37;;;;;;;42.83;25.80;;;10.30;99.90;;;;;;5033919;28;20989;-67
2024/03/05 12:32:07;;;;;;;39.27;23.90;;;10.30;99.90;;;;;;5033835;28;20426;-67
2024/03/05 12:34:36;;;;;;;41.87;23.03;;;10.30;99.90;;;;;;5033295;28;20565;-67
2024/03/05 12:37:07;;;;;;;34.03;23.27;;;10.30;99.90;;;;;;5033792;28;20425;-67
2024/03/05 12:39:33;;;;;;;50.20;26.47;;;10.30;99.90;;;;;;5033533;28;20580;-67